sensor_id;sensor_type;location;lat;lon;timestamp;pressure;altitude;pressure_sealevel;temperature;humidity
8575;BME280;4325;42.520;27.448;2023-05-28T00:01:31;100676.56;;;18.74;100.00
8575;BME280;4325;42.520;27.448;2023-05-28T00:03:59;100676.91;;;18.73;100.00
8575;BME280;4325;42.520;27.448;2023-05-28T00:06:25;100679.84;;;18.68;100.00
8575;BME280;4325;42.520;27.448;2023-05-28T00:08:52;100675.78;;;18.65;100.00
8575;BME280;4325;42.520;27.448;2023-05-28T00:11:20;100671.53;;;18.59;100.00
8575;BME280;4325;42.520;27.448;2023-05-28T00:13:49;100670.06;;;18.62;100.00
8575;BME280;4325;42.520;27.448;2023-05-28T00:16:16;100692.09;;;18.58;100.00
8575;BME280;4325;42.520;27.448;2023-05-28T00:18:42;100676.75;;;18.61;100.00
8575;BME280;4325;42.520;27.448;2023-05-28T00:21:09;100678.88;;;18.64;100.00
8575;BME280;4325;42.520;27.448;2023-05-28T00:23:36;100685.41;;;18.68;100.00
8575;BME280;4325;42.520;27.448;2023-05-28T00:26:03;100682.28;;;18.69;100.00
8575;BME280;4325;42.520;27.448;2023-05-28T00:28:31;100677.72;;;18.73;100.00
8575;BME280;4325;42.520;27.448;2023-05-28T00:30:58;100680.16;;;18.75;100.00
8575;BME280;4325;42.520;27.448;2023-05-28T00:33:25;100676.25;;;18.76;100.00
8575;BME280;4325;42.520;27.448;2023-05-28T00:35:52;100675.78;;;18.74;100.00
8575;BME280;4325;42.520;27.448;2023-05-28T00:38:21;100681.31;;;18.74;100.00
8575;BME280;4325;42.520;27.448;2023-05-28T00:40:48;100684.25;;;18.77;100.00
8575;BME280;4325;42.520;27.448;2023-05-28T00:43:15;100667.78;;;18.81;100.00
8575;BME280;4325;42.520;27.448;2023-05-28T00:45:43;100676.25;;;18.84;100.00
8575;BME280;4325;42.520;27.448;2023-05-28T00:48:10;100668.09;;;18.88;100.00
8575;BME280;4325;42.520;27.448;2023-05-28T00:50:38;100662.53;;;18.88;100.00
8575;BME280;4325;42.520;27.448;2023-05-28T00:53:06;100659.28;;;18.86;100.00
8575;BME280;4325;42.520;27.448;2023-05-28T00:55:34;100656.34;;;18.82;100.00
8575;BME280;4325;42.520;27.448;2023-05-28T00:58:01;100659.28;;;18.86;100.00
8575;BME280;4325;42.520;27.448;2023-05-28T01:00:31;100659.59;;;18.84;100.00
8575;BME280;4325;42.520;27.448;2023-05-28T01:02:59;100659.28;;;18.86;100.00
8575;BME280;4325;42.520;27.448;2023-05-28T01:05:26;100658.28;;;18.82;100.00
8575;BME280;4325;42.520;27.448;2023-05-28T01:07:53;100669.25;;;18.78;100.00
8575;BME280;4325;42.520;27.448;2023-05-28T01:10:20;100661.41;;;18.72;100.00
8575;BME280;4325;42.520;27.448;2023-05-28T01:12:47;100661.91;;;18.74;100.00
8575;BME280;4325;42.520;27.448;2023-05-28T01:15:15;100657.97;;;18.75;100.00
8575;BME280;4325;42.520;27.448;2023-05-28T01:17:42;100657.84;;;18.71;100.00
8575;BME280;4325;42.520;27.448;2023-05-28T01:20:11;100663.69;;;18.70;100.00
8575;BME280;4325;42.520;27.448;2023-05-28T01:22:40;100656.84;;;18.67;100.00
8575;BME280;4325;42.520;27.448;2023-05-28T01:25:15;100652.13;;;18.68;100.00
8575;BME280;4325;42.520;27.448;2023-05-28T01:27:42;100648.84;;;18.66;100.00
8575;BME280;4325;42.520;27.448;2023-05-28T01:30:10;100658.78;;;18.67;100.00
8575;BME280;4325;42.520;27.448;2023-05-28T01:32:38;100649.34;;;18.68;100.00
8575;BME280;4325;42.520;27.448;2023-05-28T01:35:06;100656.03;;;18.67;100.00
8575;BME280;4325;42.520;27.448;2023-05-28T01:37:37;100650.00;;;18.65;100.00
8575;BME280;4325;42.520;27.448;2023-05-28T01:40:07;100651.63;;;18.66;100.00
8575;BME280;4325;42.520;27.448;2023-05-28T01:42:37;100645.44;;;18.69;100.00
8575;BME280;4325;42.520;27.448;2023-05-28T01:45:06;100648.34;;;18.72;100.00
8575;BME280;4325;42.520;27.448;2023-05-28T01:47:34;100650.97;;;18.69;100.00
8575;BME280;4325;42.520;27.448;2023-05-28T01:50:01;100656.19;;;18.70;100.00
8575;BME280;4325;42.520;27.448;2023-05-28T01:52:29;100647.22;;;18.65;100.00
8575;BME280;4325;42.520;27.448;2023-05-28T01:54:55;100647.06;;;18.70;100.00
8575;BME280;4325;42.520;27.448;2023-05-28T01:57:22;100649.50;;;18.63;100.00
8575;BME280;4325;42.520;27.448;2023-05-28T01:59:51;100663.72;;;18.61;100.00
8575;BME280;4325;42.520;27.448;2023-05-28T02:02:18;100670.06;;;18.62;100.00
8575;BME280;4325;42.520;27.448;2023-05-28T02:04:46;100674.47;;;18.63;100.00
8575;BME280;4325;42.520;27.448;2023-05-28T02:07:13;100674.13;;;18.64;100.00
8575;BME280;4325;42.520;27.448;2023-05-28T02:09:40;100669.41;;;18.65;100.00
8575;BME280;4325;42.520;27.448;2023-05-28T02:12:07;100668.91;;;18.63;100.00
8575;BME280;4325;42.520;27.448;2023-05-28T02:14:34;100675.44;;;18.67;100.00
8575;BME280;4325;42.520;27.448;2023-05-28T02:17:03;100679.84;;;18.68;100.00
8575;BME280;4325;42.520;27.448;2023-05-28T02:19:30;100687.69;;;18.66;100.00
8575;BME280;4325;42.520;27.448;2023-05-28T02:21:58;100681.66;;;18.64;100.00
8575;BME280;4325;42.520;27.448;2023-05-28T02:24:25;100674.94;;;18.65;100.00
8575;BME280;4325;42.520;27.448;2023-05-28T02:26:52;100673.34;;;18.64;100.00
8575;BME280;4325;42.520;27.448;2023-05-28T02:29:19;100680.97;;;18.67;100.00
8575;BME280;4325;42.520;27.448;2023-05-28T02:31:46;100669.88;;;18.67;100.00
8575;BME280;4325;42.520;27.448;2023-05-28T02:34:14;100675.09;;;18.77;100.00
8575;BME280;4325;42.520;27.448;2023-05-28T02:36:41;100675.94;;;18.77;100.00
8575;BME280;4325;42.520;27.448;2023-05-28T02:39:09;100677.88;;;18.77;100.00
8575;BME280;4325;42.520;27.448;2023-05-28T02:41:36;100676.56;;;18.74;100.00
8575;BME280;4325;42.520;27.448;2023-05-28T02:44:03;100675.78;;;18.74;100.00
8575;BME280;4325;42.520;27.448;2023-05-28T02:46:29;100668.09;;;18.71;100.00
8575;BME280;4325;42.520;27.448;2023-05-28T02:48:56;100681.13;;;18.79;100.00
8575;BME280;4325;42.520;27.448;2023-05-28T02:51:25;100693.22;;;18.83;100.00
8575;BME280;4325;42.520;27.448;2023-05-28T02:53:52;100688.81;;;18.82;100.00
8575;BME280;4325;42.520;27.448;2023-05-28T02:56:19;100688.50;;;18.83;100.00
8575;BME280;4325;42.520;27.448;2023-05-28T02:58:46;100684.25;;;18.86;100.00
8575;BME280;4325;42.520;27.448;2023-05-28T03:01:13;100695.00;;;18.87;100.00
8575;BME280;4325;42.520;27.448;2023-05-28T03:03:40;100689.81;;;18.86;100.00
8575;BME280;4325;42.520;27.448;2023-05-28T03:06:07;100694.19;;;18.87;100.00
8575;BME280;4325;42.520;27.448;2023-05-28T03:08:35;100691.91;;;18.89;100.00
8575;BME280;4325;42.520;27.448;2023-05-28T03:11:02;100697.44;;;18.89;100.00
8575;BME280;4325;42.520;27.448;2023-05-28T03:13:29;100688.97;;;18.94;100.00
8575;BME280;4325;42.520;27.448;2023-05-28T03:15:56;100694.50;;;18.94;100.00
8575;BME280;4325;42.520;27.448;2023-05-28T03:18:24;100692.22;;;18.96;100.00
8575;BME280;4325;42.520;27.448;2023-05-28T03:20:51;100689.94;;;18.98;100.00
8575;BME280;4325;42.520;27.448;2023-05-28T03:23:19;100693.22;;;19.00;100.00
8575;BME280;4325;42.520;27.448;2023-05-28T03:25:47;100699.72;;;19.04;100.00
8575;BME280;4325;42.520;27.448;2023-05-28T03:28:14;100695.81;;;19.05;100.00
8575;BME280;4325;42.520;27.448;2023-05-28T03:30:41;100702.97;;;19.06;100.00
8575;BME280;4325;42.520;27.448;2023-05-28T03:33:08;100710.66;;;19.09;100.00
8575;BME280;4325;42.520;27.448;2023-05-28T03:35:35;100700.38;;;19.09;100.00
8575;BME280;4325;42.520;27.448;2023-05-28T03:38:02;100704.75;;;19.19;100.00
8575;BME280;4325;42.520;27.448;2023-05-28T03:40:29;100707.69;;;19.14;100.00
8575;BME280;4325;42.520;27.448;2023-05-28T03:42:57;100700.34;;;19.18;100.00
8575;BME280;4325;42.520;27.448;2023-05-28T03:45:24;100712.75;;;19.21;100.00
8575;BME280;4325;42.520;27.448;2023-05-28T03:47:51;100710.13;;;19.24;100.00
8575;BME280;4325;42.520;27.448;2023-05-28T03:50:18;100710.09;;;19.33;100.00
8575;BME280;4325;42.520;27.448;2023-05-28T03:52:45;100705.22;;;19.38;100.00
8575;BME280;4325;42.520;27.448;2023-05-28T03:55:12;100708.31;;;19.45;100.00
8575;BME280;4325;42.520;27.448;2023-05-28T03:57:39;100717.59;;;19.49;100.00
8575;BME280;4325;42.520;27.448;2023-05-28T04:00:09;100710.72;;;19.55;100.00
8575;BME280;4325;42.520;27.448;2023-05-28T04:02:36;100709.72;;;19.68;100.00
8575;BME280;4325;42.520;27.448;2023-05-28T04:05:04;100708.53;;;19.78;100.00
8575;BME280;4325;42.520;27.448;2023-05-28T04:07:31;100705.84;;;19.90;100.00
8575;BME280;4325;42.520;27.448;2023-05-28T04:09:57;100715.09;;;20.03;100.00
8575;BME280;4325;42.520;27.448;2023-05-28T04:12:24;100716.19;;;20.10;100.00
8575;BME280;4325;42.520;27.448;2023-05-28T04:14:51;100716.16;;;20.19;100.00
8575;BME280;4325;42.520;27.448;2023-05-28T04:17:19;100714.50;;;20.26;100.00
8575;BME280;4325;42.520;27.448;2023-05-28T04:19:46;100720.47;;;20.37;100.00
8575;BME280;4325;42.520;27.448;2023-05-28T04:22:13;100720.97;;;20.39;100.00
8575;BME280;4325;42.520;27.448;2023-05-28T04:24:40;100739.88;;;20.46;100.00
8575;BME280;4325;42.520;27.448;2023-05-28T04:27:07;100734.13;;;20.51;100.00
8575;BME280;4325;42.520;27.448;2023-05-28T04:29:34;100730.81;;;20.57;100.00
8575;BME280;4325;42.520;27.448;2023-05-28T04:32:02;100737.84;;;20.55;100.00
8575;BME280;4325;42.520;27.448;2023-05-28T04:34:31;100734.25;;;20.54;100.00
8575;BME280;4325;42.520;27.448;2023-05-28T04:36:59;100739.50;;;20.56;100.00
8575;BME280;4325;42.520;27.448;2023-05-28T04:39:26;100734.47;;;20.70;100.00
8575;BME280;4325;42.520;27.448;2023-05-28T04:41:53;100745.31;;;20.83;100.00
8575;BME280;4325;42.520;27.448;2023-05-28T04:44:20;100749.53;;;20.89;100.00
8575;BME280;4325;42.520;27.448;2023-05-28T04:46:51;100738.59;;;20.84;100.00
8575;BME280;4325;42.520;27.448;2023-05-28T04:49:17;100745.63;;;20.90;100.00
8575;BME280;4325;42.520;27.448;2023-05-28T04:51:46;100743.50;;;20.87;100.00
8575;BME280;4325;42.520;27.448;2023-05-28T04:54:13;100756.44;;;20.83;100.00
8575;BME280;4325;42.520;27.448;2023-05-28T04:56:39;100753.88;;;20.78;100.00
8575;BME280;4325;42.520;27.448;2023-05-28T04:59:06;100746.69;;;20.77;100.00
8575;BME280;4325;42.520;27.448;2023-05-28T05:01:35;100749.94;;;20.79;100.00
8575;BME280;4325;42.520;27.448;2023-05-28T05:04:04;100751.91;;;20.79;100.00
8575;BME280;4325;42.520;27.448;2023-05-28T05:06:32;100747.63;;;20.81;100.00
8575;BME280;4325;42.520;27.448;2023-05-28T05:09:00;100756.25;;;20.88;100.00
8575;BME280;4325;42.520;27.448;2023-05-28T05:11:27;100750.47;;;20.93;100.00
8575;BME280;4325;42.520;27.448;2023-05-28T05:13:54;100754.44;;;20.92;100.00
8575;BME280;4325;42.520;27.448;2023-05-28T05:16:21;100753.53;;;21.00;100.00
8575;BME280;4325;42.520;27.448;2023-05-28T05:18:48;100749.94;;;21.00;100.00
8575;BME280;4325;42.520;27.448;2023-05-28T05:21:15;100738.06;;;20.91;100.00
8575;BME280;4325;42.520;27.448;2023-05-28T05:23:42;100741.59;;;21.00;100.00
8575;BME280;4325;42.520;27.448;2023-05-28T05:26:11;100752.94;;;21.16;100.00
8575;BME280;4325;42.520;27.448;2023-05-28T05:28:38;100758.66;;;21.19;100.00
8575;BME280;4325;42.520;27.448;2023-05-28T05:31:07;100762.16;;;21.28;100.00
8575;BME280;4325;42.520;27.448;2023-05-28T05:33:34;100755.09;;;21.31;100.00
8575;BME280;4325;42.520;27.448;2023-05-28T05:36:01;100748.59;;;21.27;100.00
8575;BME280;4325;42.520;27.448;2023-05-28T05:38:29;100756.06;;;21.14;100.00
8575;BME280;4325;42.520;27.448;2023-05-28T05:40:56;100761.28;;;21.16;100.00
8575;BME280;4325;42.520;27.448;2023-05-28T05:43:24;100765.03;;;21.20;100.00
8575;BME280;4325;42.520;27.448;2023-05-28T05:45:51;100752.66;;;21.29;100.00
8575;BME280;4325;42.520;27.448;2023-05-28T05:48:18;100766.22;;;21.31;100.00
8575;BME280;4325;42.520;27.448;2023-05-28T05:50:49;100753.44;;;21.30;100.00
8575;BME280;4325;42.520;27.448;2023-05-28T05:53:16;100758.09;;;21.26;100.00
8575;BME280;4325;42.520;27.448;2023-05-28T05:55:43;100757.94;;;21.22;100.00
8575;BME280;4325;42.520;27.448;2023-05-28T05:58:10;100760.13;;;21.17;100.00
8575;BME280;4325;42.520;27.448;2023-05-28T06:00:39;100754.31;;;21.10;100.00
8575;BME280;4325;42.520;27.448;2023-05-28T06:03:05;100762.38;;;21.02;100.00
8575;BME280;4325;42.520;27.448;2023-05-28T06:05:33;100763.94;;;20.91;100.00
8575;BME280;4325;42.520;27.448;2023-05-28T06:08:00;100765.81;;;20.79;100.00
8575;BME280;4325;42.520;27.448;2023-05-28T06:10:28;100762.28;;;20.70;100.00
8575;BME280;4325;42.520;27.448;2023-05-28T06:12:54;100762.69;;;20.60;100.00
8575;BME280;4325;42.520;27.448;2023-05-28T06:15:21;100760.19;;;20.46;100.00
8575;BME280;4325;42.520;27.448;2023-05-28T06:17:51;100764.00;;;20.33;100.00
8575;BME280;4325;42.520;27.448;2023-05-28T06:20:18;100772.06;;;20.26;100.00
8575;BME280;4325;42.520;27.448;2023-05-28T06:22:46;100775.50;;;20.23;100.00
8575;BME280;4325;42.520;27.448;2023-05-28T06:25:12;100777.66;;;20.17;100.00
8575;BME280;4325;42.520;27.448;2023-05-28T06:27:39;100769.16;;;20.14;100.00
8575;BME280;4325;42.520;27.448;2023-05-28T06:30:07;100771.66;;;20.07;100.00
8575;BME280;4325;42.520;27.448;2023-05-28T06:32:34;100776.72;;;20.05;100.00
8575;BME280;4325;42.520;27.448;2023-05-28T06:35:03;100772.97;;;20.01;100.00
8575;BME280;4325;42.520;27.448;2023-05-28T06:37:30;100779.72;;;19.91;100.00
8575;BME280;4325;42.520;27.448;2023-05-28T06:39:57;100783.84;;;19.76;100.00
8575;BME280;4325;42.520;27.448;2023-05-28T06:42:24;100781.63;;;19.61;100.00
8575;BME280;4325;42.520;27.448;2023-05-28T06:44:52;100782.91;;;19.72;100.00
8575;BME280;4325;42.520;27.448;2023-05-28T06:47:18;100788.09;;;19.74;100.00
8575;BME280;4325;42.520;27.448;2023-05-28T06:49:45;100783.66;;;19.82;100.00
8575;BME280;4325;42.520;27.448;2023-05-28T06:52:13;100770.69;;;20.03;100.00
8575;BME280;4325;42.520;27.448;2023-05-28T06:54:40;100782.53;;;20.29;100.00
8575;BME280;4325;42.520;27.448;2023-05-28T06:57:07;100775.81;;;20.80;100.00
8575;BME280;4325;42.520;27.448;2023-05-28T06:59:34;100776.38;;;21.47;100.00
8575;BME280;4325;42.520;27.448;2023-05-28T07:02:01;100781.84;;;22.37;100.00
8575;BME280;4325;42.520;27.448;2023-05-28T07:04:28;100778.63;;;23.39;100.00
8575;BME280;4325;42.520;27.448;2023-05-28T07:06:55;100781.91;;;24.31;100.00
8575;BME280;4325;42.520;27.448;2023-05-28T07:09:23;100778.25;;;25.16;100.00
8575;BME280;4325;42.520;27.448;2023-05-28T07:11:51;100779.72;;;25.90;100.00
8575;BME280;4325;42.520;27.448;2023-05-28T07:14:18;100793.47;;;26.44;100.00
8575;BME280;4325;42.520;27.448;2023-05-28T07:16:45;100795.41;;;26.62;99.19
8575;BME280;4325;42.520;27.448;2023-05-28T07:19:12;100796.69;;;26.68;92.63
8575;BME280;4325;42.520;27.448;2023-05-28T07:21:38;100803.91;;;26.43;91.72
8575;BME280;4325;42.520;27.448;2023-05-28T07:24:05;100800.00;;;26.25;90.98
8575;BME280;4325;42.520;27.448;2023-05-28T07:26:34;100805.00;;;26.12;92.66
8575;BME280;4325;42.520;27.448;2023-05-28T07:29:01;100798.50;;;26.08;92.03
8575;BME280;4325;42.520;27.448;2023-05-28T07:31:28;100798.09;;;25.87;91.76
8575;BME280;4325;42.520;27.448;2023-05-28T07:33:56;100801.38;;;25.47;94.66
8575;BME280;4325;42.520;27.448;2023-05-28T07:36:23;100798.06;;;25.07;97.50
8575;BME280;4325;42.520;27.448;2023-05-28T07:38:50;100805.84;;;24.63;100.00
8575;BME280;4325;42.520;27.448;2023-05-28T07:41:17;100809.69;;;24.24;100.00
8575;BME280;4325;42.520;27.448;2023-05-28T07:43:45;100810.19;;;23.83;100.00
8575;BME280;4325;42.520;27.448;2023-05-28T07:46:14;100810.41;;;23.34;100.00
8575;BME280;4325;42.520;27.448;2023-05-28T07:48:42;100810.56;;;22.86;100.00
8575;BME280;4325;42.520;27.448;2023-05-28T07:51:09;100805.44;;;22.52;100.00
8575;BME280;4325;42.520;27.448;2023-05-28T07:53:37;100799.41;;;22.25;100.00
8575;BME280;4325;42.520;27.448;2023-05-28T07:56:04;100795.72;;;22.21;100.00
8575;BME280;4325;42.520;27.448;2023-05-28T07:58:31;100802.66;;;22.40;100.00
8575;BME280;4325;42.520;27.448;2023-05-28T08:00:59;100802.09;;;22.82;100.00
8575;BME280;4325;42.520;27.448;2023-05-28T08:03:26;100797.50;;;23.30;100.00
8575;BME280;4325;42.520;27.448;2023-05-28T08:05:53;100801.78;;;23.83;100.00
8575;BME280;4325;42.520;27.448;2023-05-28T08:08:20;100798.44;;;24.36;100.00
8575;BME280;4325;42.520;27.448;2023-05-28T08:10:47;100802.00;;;24.52;100.00
8575;BME280;4325;42.520;27.448;2023-05-28T08:13:14;100801.28;;;24.55;100.00
8575;BME280;4325;42.520;27.448;2023-05-28T08:15:41;100797.00;;;24.61;100.00
8575;BME280;4325;42.520;27.448;2023-05-28T08:18:09;100792.78;;;24.67;100.00
8575;BME280;4325;42.520;27.448;2023-05-28T08:20:36;100803.44;;;24.77;100.00
8575;BME280;4325;42.520;27.448;2023-05-28T08:23:04;100802.34;;;24.82;100.00
8575;BME280;4325;42.520;27.448;2023-05-28T08:25:32;100795.47;;;24.64;100.00
8575;BME280;4325;42.520;27.448;2023-05-28T08:27:59;100797.00;;;24.61;100.00
8575;BME280;4325;42.520;27.448;2023-05-28T08:30:25;100792.94;;;24.74;100.00
8575;BME280;4325;42.520;27.448;2023-05-28T08:32:52;100801.88;;;24.80;100.00
8575;BME280;4325;42.520;27.448;2023-05-28T08:35:21;100790.84;;;24.71;100.00
8575;BME280;4325;42.520;27.448;2023-05-28T08:37:48;100792.59;;;24.60;100.00
8575;BME280;4325;42.520;27.448;2023-05-28T08:40:17;100792.31;;;24.65;100.00
8575;BME280;4325;42.520;27.448;2023-05-28T08:42:44;100798.84;;;25.04;100.00
8575;BME280;4325;42.520;27.448;2023-05-28T08:45:11;100795.31;;;25.45;99.13
8575;BME280;4325;42.520;27.448;2023-05-28T08:47:39;100803.63;;;26.26;94.65
8575;BME280;4325;42.520;27.448;2023-05-28T08:50:07;100794.97;;;29.57;71.65
8575;BME280;4325;42.520;27.448;2023-05-28T08:52:36;100785.25;;;32.92;55.16
8575;BME280;4325;42.520;27.448;2023-05-28T08:55:04;100794.84;;;33.39;49.26
8575;BME280;4325;42.520;27.448;2023-05-28T08:57:31;100790.31;;;33.71;46.75
8575;BME280;4325;42.520;27.448;2023-05-28T08:59:59;100796.28;;;34.34;45.75
8575;BME280;4325;42.520;27.448;2023-05-28T09:02:26;100794.59;;;35.02;43.78
8575;BME280;4325;42.520;27.448;2023-05-28T09:04:53;100796.50;;;36.04;40.38
8575;BME280;4325;42.520;27.448;2023-05-28T09:07:22;100802.06;;;36.88;38.29
8575;BME280;4325;42.520;27.448;2023-05-28T09:09:51;100798.91;;;36.70;37.19
8575;BME280;4325;42.520;27.448;2023-05-28T09:12:21;100796.88;;;34.91;38.80
8575;BME280;4325;42.520;27.448;2023-05-28T09:14:50;100791.09;;;33.45;42.01
8575;BME280;4325;42.520;27.448;2023-05-28T09:17:17;100792.16;;;32.46;44.92
8575;BME280;4325;42.520;27.448;2023-05-28T09:19:58;100794.03;;;31.54;46.93
8575;BME280;4325;42.520;27.448;2023-05-28T09:22:26;100791.03;;;30.67;49.36
8575;BME280;4325;42.520;27.448;2023-05-28T09:24:54;100784.19;;;30.04;51.67
8575;BME280;4325;42.520;27.448;2023-05-28T09:27:21;100783.78;;;29.88;52.99
8575;BME280;4325;42.520;27.448;2023-05-28T09:29:49;100787.75;;;29.59;54.23
8575;BME280;4325;42.520;27.448;2023-05-28T09:32:18;100782.00;;;29.34;55.85
8575;BME280;4325;42.520;27.448;2023-05-28T09:34:48;100785.38;;;28.86;56.86
8575;BME280;4325;42.520;27.448;2023-05-28T09:37:16;100786.22;;;28.35;60.19
8575;BME280;4325;42.520;27.448;2023-05-28T09:39:43;100795.19;;;28.04;62.30
8575;BME280;4325;42.520;27.448;2023-05-28T09:42:12;100786.16;;;27.47;67.02
8575;BME280;4325;42.520;27.448;2023-05-28T09:44:40;100785.34;;;26.88;70.27
8575;BME280;4325;42.520;27.448;2023-05-28T09:47:14;100793.63;;;26.05;76.88
8575;BME280;4325;42.520;27.448;2023-05-28T09:49:42;100779.75;;;25.48;81.00
8575;BME280;4325;42.520;27.448;2023-05-28T09:52:13;100787.09;;;25.18;85.21
8575;BME280;4325;42.520;27.448;2023-05-28T09:54:45;100787.84;;;25.15;86.31
8575;BME280;4325;42.520;27.448;2023-05-28T09:57:15;100784.91;;;25.46;85.08
8575;BME280;4325;42.520;27.448;2023-05-28T09:59:44;100779.06;;;26.71;77.97
8575;BME280;4325;42.520;27.448;2023-05-28T10:02:24;100783.84;;;27.57;70.21
8575;BME280;4325;42.520;27.448;2023-05-28T10:04:53;100792.41;;;27.71;65.87
8575;BME280;4325;42.520;27.448;2023-05-28T10:07:23;100780.81;;;27.76;65.87
8575;BME280;4325;42.520;27.448;2023-05-28T10:09:53;100783.47;;;27.98;63.83
8575;BME280;4325;42.520;27.448;2023-05-28T10:12:25;100778.34;;;27.71;64.18
8575;BME280;4325;42.520;27.448;2023-05-28T10:14:55;100782.66;;;27.28;67.65
8575;BME280;4325;42.520;27.448;2023-05-28T10:17:22;100788.50;;;26.34;74.36
8575;BME280;4325;42.520;27.448;2023-05-28T10:19:49;100785.69;;;25.66;79.89
8575;BME280;4325;42.520;27.448;2023-05-28T10:22:16;100775.66;;;25.07;85.02
8575;BME280;4325;42.520;27.448;2023-05-28T10:24:43;100783.72;;;24.74;90.15
8575;BME280;4325;42.520;27.448;2023-05-28T10:27:12;100780.34;;;25.19;89.42
8575;BME280;4325;42.520;27.448;2023-05-28T10:29:42;100775.00;;;25.52;86.44
8575;BME280;4325;42.520;27.448;2023-05-28T10:32:13;100762.69;;;25.37;86.96
8575;BME280;4325;42.520;27.448;2023-05-28T10:34:40;100772.56;;;25.12;82.78
8575;BME280;4325;42.520;27.448;2023-05-28T10:37:08;100768.34;;;24.83;82.72
8575;BME280;4325;42.520;27.448;2023-05-28T10:39:39;100774.63;;;24.61;83.85
8575;BME280;4325;42.520;27.448;2023-05-28T10:42:07;100779.84;;;24.28;86.85
8575;BME280;4325;42.520;27.448;2023-05-28T10:44:53;100782.63;;;23.97;91.49
8575;BME280;4325;42.520;27.448;2023-05-28T10:47:32;100768.97;;;23.95;92.08
8575;BME280;4325;42.520;27.448;2023-05-28T10:50:00;100772.97;;;24.10;91.70
8575;BME280;4325;42.520;27.448;2023-05-28T10:52:36;100775.34;;;24.58;89.66
8575;BME280;4325;42.520;27.448;2023-05-28T10:55:05;100768.06;;;24.88;86.30
8575;BME280;4325;42.520;27.448;2023-05-28T10:57:39;100768.50;;;25.10;84.26
8575;BME280;4325;42.520;27.448;2023-05-28T11:00:10;100779.56;;;25.22;84.21
8575;BME280;4325;42.520;27.448;2023-05-28T11:02:39;100769.84;;;25.16;85.26
8575;BME280;4325;42.520;27.448;2023-05-28T11:05:07;100767.34;;;25.30;85.47
8575;BME280;4325;42.520;27.448;2023-05-28T11:07:36;100759.59;;;25.84;81.30
8575;BME280;4325;42.520;27.448;2023-05-28T11:10:05;100746.25;;;26.49;78.29
8575;BME280;4325;42.520;27.448;2023-05-28T11:12:34;100749.81;;;27.35;73.16
8575;BME280;4325;42.520;27.448;2023-05-28T11:15:01;100755.59;;;28.92;62.48
8575;BME280;4325;42.520;27.448;2023-05-28T11:17:29;100751.47;;;30.81;52.96
8575;BME280;4325;42.520;27.448;2023-05-28T11:20:02;100765.16;;;32.76;46.12
8575;BME280;4325;42.520;27.448;2023-05-28T11:22:32;100754.31;;;34.84;41.00
8575;BME280;4325;42.520;27.448;2023-05-28T11:25:04;100759.44;;;36.81;36.74
8575;BME280;4325;42.520;27.448;2023-05-28T11:27:32;100766.28;;;38.42;32.31
8575;BME280;4325;42.520;27.448;2023-05-28T11:30:02;100762.44;;;39.56;31.07
8575;BME280;4325;42.520;27.448;2023-05-28T11:32:33;100761.63;;;40.36;29.49
8575;BME280;4325;42.520;27.448;2023-05-28T11:35:01;100763.31;;;40.91;28.03
8575;BME280;4325;42.520;27.448;2023-05-28T11:37:28;100767.31;;;41.63;28.06
8575;BME280;4325;42.520;27.448;2023-05-28T11:39:58;100752.59;;;40.55;28.33
8575;BME280;4325;42.520;27.448;2023-05-28T11:42:26;100761.59;;;40.17;29.39
8575;BME280;4325;42.520;27.448;2023-05-28T11:44:53;100761.63;;;39.56;29.31
8575;BME280;4325;42.520;27.448;2023-05-28T11:47:21;100748.88;;;39.05;30.26
8575;BME280;4325;42.520;27.448;2023-05-28T11:49:49;100756.72;;;38.70;30.26
8575;BME280;4325;42.520;27.448;2023-05-28T11:52:18;100749.22;;;39.90;29.63
8575;BME280;4325;42.520;27.448;2023-05-28T11:54:46;100739.84;;;40.83;28.11
8575;BME280;4325;42.520;27.448;2023-05-28T11:57:20;100746.31;;;41.38;27.72
8575;BME280;4325;42.520;27.448;2023-05-28T11:59:59;100743.59;;;41.44;26.49
8575;BME280;4325;42.520;27.448;2023-05-28T12:02:27;100754.97;;;41.11;26.87
8575;BME280;4325;42.520;27.448;2023-05-28T12:04:57;100743.47;;;41.11;26.57
8575;BME280;4325;42.520;27.448;2023-05-28T12:07:27;100745.91;;;40.00;27.72
8575;BME280;4325;42.520;27.448;2023-05-28T12:10:05;100733.94;;;38.66;28.78
8575;BME280;4325;42.520;27.448;2023-05-28T12:12:33;100738.41;;;38.33;30.34
8575;BME280;4325;42.520;27.448;2023-05-28T12:15:01;100727.13;;;38.51;30.00
8575;BME280;4325;42.520;27.448;2023-05-28T12:17:34;100732.53;;;37.23;31.52
8575;BME280;4325;42.520;27.448;2023-05-28T12:20:06;100731.88;;;36.46;32.19
8575;BME280;4325;42.520;27.448;2023-05-28T12:22:33;100724.25;;;35.23;34.32
8575;BME280;4325;42.520;27.448;2023-05-28T12:25:01;100724.59;;;36.28;32.98
8575;BME280;4325;42.520;27.448;2023-05-28T12:27:28;100719.41;;;35.91;32.95
8575;BME280;4325;42.520;27.448;2023-05-28T12:29:56;100730.91;;;36.36;33.50
8575;BME280;4325;42.520;27.448;2023-05-28T12:32:23;100722.81;;;36.51;32.60
8575;BME280;4325;42.520;27.448;2023-05-28T12:34:50;100715.03;;;35.70;33.41
8575;BME280;4325;42.520;27.448;2023-05-28T12:37:20;100709.22;;;35.02;34.38
8575;BME280;4325;42.520;27.448;2023-05-28T12:39:47;100700.94;;;34.72;35.55
8575;BME280;4325;42.520;27.448;2023-05-28T12:42:14;100706.47;;;35.19;34.66
8575;BME280;4325;42.520;27.448;2023-05-28T12:44:41;100715.69;;;36.10;33.69
8575;BME280;4325;42.520;27.448;2023-05-28T12:47:08;100707.41;;;35.84;33.64
8575;BME280;4325;42.520;27.448;2023-05-28T12:49:35;100701.09;;;36.08;34.02
8575;BME280;4325;42.520;27.448;2023-05-28T12:52:02;100714.31;;;37.04;32.16
8575;BME280;4325;42.520;27.448;2023-05-28T12:54:32;100707.41;;;36.16;33.20
8575;BME280;4325;42.520;27.448;2023-05-28T12:56:59;100698.22;;;35.60;34.79